Time;durP1;ratioP1;P1;durP2;ratioP2;P2;SDS_P1;SDS_P2;PMS_P1;PMS_P2;Temp;Humidity;BMP_temperature;BMP_pressure;BME280_temperature;BME280_humidity;BME280_pressure;Samples;Min_cycle;Max_cycle;Signal;HPM_P1;HPM_P2
2021/12/12 00:00:14;;;;;;;0.50;0.50;;;-0.40;99.90;;;;;;4428782;32;20121;-68
2021/12/12 00:02:59;;;;;;;1.33;0.98;;;-0.50;99.90;;;;;;4425134;32;20539;-68
2021/12/12 00:05:33;;;;;;;1.48;1.37;;;-0.50;99.90;;;;;;4416649;32;20085;-68
2021/12/12 00:07:59;;;;;;;1.77;1.65;;;-0.50;99.90;;;;;;4443906;32;20135;-69
2021/12/12 00:10:28;;;;;;;1.45;1.35;;;-0.40;99.90;;;;;;4425664;32;20132;-68
2021/12/12 00:13:00;;;;;;;2.65;1.80;;;-0.40;99.90;;;;;;4423626;32;20112;-68
2021/12/12 00:15:25;;;;;;;1.12;1.05;;;-0.50;99.90;;;;;;4424703;32;20432;-69
2021/12/12 00:17:51;;;;;;;10.85;2.97;;;-0.60;99.90;;;;;;4415164;32;20584;-68
2021/12/12 00:20:22;;;;;;;1.37;1.27;;;-0.50;99.90;;;;;;4422153;32;20098;-69
2021/12/12 00:22:48;;;;;;;;;;;-0.40;99.90;;;;;;4425139;32;20078;-68
2021/12/12 00:25:15;;;;;;;0.60;0.60;;;-0.50;99.90;;;;;;4418924;32;19979;-67
2021/12/12 00:27:41;;;;;;;1.55;1.40;;;-0.50;99.90;;;;;;4417409;32;20430;-68
2021/12/12 00:30:10;;;;;;;0.50;0.50;;;-0.50;99.90;;;;;;4424925;32;20139;-67
2021/12/12 00:32:37;;;;;;;0.88;0.88;;;-0.40;99.90;;;;;;4419240;32;20128;-69
2021/12/12 00:35:06;;;;;;;2.92;1.48;;;-0.40;99.90;;;;;;4422916;32;20129;-68
2021/12/12 00:37:32;;;;;;;2.47;1.25;;;-0.40;99.90;;;;;;4418969;32;20576;-68
2021/12/12 00:40:07;;;;;;;1.00;1.00;;;-0.30;99.90;;;;;;4424238;32;20050;-68
2021/12/12 00:42:35;;;;;;;3.40;1.40;;;-0.40;99.90;;;;;;4420930;32;20566;-68
2021/12/12 00:45:07;;;;;;;0.85;0.85;;;-0.40;99.90;;;;;;4428810;32;20571;-69
2021/12/12 00:47:33;;;;;;;2.47;1.33;;;-0.30;99.90;;;;;;4428460;32;20509;-68
2021/12/12 00:49:58;;;;;;;3.30;2.12;;;-0.40;99.90;;;;;;4416877;32;20124;-68
2021/12/12 00:52:24;;;;;;;1.87;1.08;;;-0.30;99.90;;;;;;4418256;32;20058;-68
2021/12/12 00:54:51;;;;;;;3.10;1.77;;;-0.30;99.90;;;;;;4423603;32;20065;-68
2021/12/12 00:57:19;;;;;;;7.32;1.37;;;-0.20;99.90;;;;;;4421925;32;20490;-68
2021/12/12 00:59:46;;;;;;;0.70;0.70;;;-0.20;99.90;;;;;;4421220;32;20431;-68
2021/12/12 01:02:17;;;;;;;1.33;1.23;;;-0.20;99.90;;;;;;4428808;32;20108;-68
2021/12/12 01:04:46;;;;;;;1.75;1.62;;;-0.20;99.90;;;;;;4428424;32;20086;-68
2021/12/12 01:07:17;;;;;;;0.80;0.80;;;-0.20;99.90;;;;;;4422711;32;20090;-68
2021/12/12 01:09:50;;;;;;;0.70;0.70;;;-0.20;99.90;;;;;;4420419;32;20433;-68
2021/12/12 01:12:21;;;;;;;0.70;0.70;;;-0.20;99.90;;;;;;4420514;32;20046;-68
2021/12/12 01:14:49;;;;;;;;;;;-0.10;99.90;;;;;;4426912;32;20062;-68
2021/12/12 01:17:19;;;;;;;0.60;0.60;;;-0.20;99.90;;;;;;4427273;32;20033;-69
2021/12/12 01:19:51;;;;;;;1.00;1.00;;;-0.20;99.90;;;;;;4425440;32;20472;-67
2021/12/12 01:22:27;;;;;;;1.37;0.80;;;-0.30;99.90;;;;;;4426561;32;20073;-68
2021/12/12 01:24:55;;;;;;;2.42;1.50;;;-0.20;99.90;;;;;;4426191;32;20065;-68
2021/12/12 01:27:21;;;;;;;1.90;1.33;;;-0.20;99.90;;;;;;4421842;32;20497;-67
2021/12/12 01:29:49;;;;;;;5.43;1.73;;;-0.20;99.90;;;;;;4417606;32;20120;-68
2021/12/12 01:32:25;;;;;;;2.33;1.30;;;-0.30;99.90;;;;;;4415976;32;20096;-69
2021/12/12 01:34:51;;;;;;;2.85;1.75;;;-0.30;99.90;;;;;;4429165;32;20061;-68
2021/12/12 01:39:58;;;;;;;0.82;0.82;;;-0.10;99.90;;;;;;4421087;32;20125;-68
2021/12/12 01:42:32;;;;;;;0.60;0.60;;;-0.20;99.90;;;;;;4430790;32;20053;-68
2021/12/12 01:45:05;;;;;;;1.37;1.12;;;-0.20;99.90;;;;;;4429520;32;20049;-68
2021/12/12 01:47:36;;;;;;;0.50;0.50;;;-0.10;99.90;;;;;;4427809;32;20440;-68
2021/12/12 01:50:08;;;;;;;1.23;1.12;;;-0.10;99.90;;;;;;4429309;32;20098;-68
2021/12/12 01:52:36;;;;;;;0.82;0.82;;;-0.20;99.90;;;;;;4419091;32;20592;-68
2021/12/12 01:55:26;;;;;;;0.93;0.90;;;-0.30;99.90;;;;;;4421682;32;20057;-68
2021/12/12 01:57:57;;;;;;;0.70;0.70;;;-0.30;99.90;;;;;;4414873;32;20070;-68
2021/12/12 02:00:38;;;;;;;1.00;1.00;;;-0.20;99.90;;;;;;4414948;32;20058;-68
2021/12/12 02:03:07;;;;;;;2.08;1.73;;;-0.20;99.90;;;;;;4421231;32;20136;-68
2021/12/12 02:05:32;;;;;;;1.27;1.15;;;-0.30;99.90;;;;;;4430023;32;20078;-68
2021/12/12 02:08:03;;;;;;;0.50;0.50;;;-0.20;99.90;;;;;;4430474;32;20078;-68
2021/12/12 02:10:34;;;;;;;2.37;1.25;;;-0.20;99.90;;;;;;4430317;32;20540;-68
2021/12/12 02:13:06;;;;;;;6.03;1.77;;;-0.20;99.90;;;;;;4425321;32;20388;-69
2021/12/12 02:15:35;;;;;;;0.95;0.95;;;-0.20;99.90;;;;;;4419139;32;20061;-68
2021/12/12 02:18:06;;;;;;;1.33;0.65;;;-0.20;99.90;;;;;;4424474;32;20058;-68
2021/12/12 02:20:40;;;;;;;0.60;0.60;;;-0.20;99.90;;;;;;4414627;32;20530;-68
2021/12/12 02:35:25;;;;;;;13.62;3.25;;;-0.30;99.90;;;;;;4407119;32;20553;-68
2021/12/12 02:37:07;;;;;;;1.15;1.08;;;-0.20;99.90;;;;;;4405543;32;20062;-69
2021/12/12 02:39:33;;;;;;;0.62;0.62;;;-0.20;99.90;;;;;;4420164;32;20587;-68
2021/12/12 02:42:04;;;;;;;1.58;1.42;;;-0.10;99.90;;;;;;4430651;32;20120;-68
2021/12/12 02:44:31;;;;;;;;;;;0.00;99.90;;;;;;4427437;32;20082;-67
2021/12/12 02:47:00;;;;;;;3.50;1.83;;;0.00;99.90;;;;;;4417291;32;20256;-68
2021/12/12 02:50:09;;;;;;;0.60;0.60;;;-0.30;99.90;;;;;;4422649;32;20545;-68
2021/12/12 02:52:17;;;;;;;2.53;1.70;;;-0.30;99.90;;;;;;4404064;32;20093;-68
2021/12/12 02:54:44;;;;;;;1.30;1.20;;;-0.40;99.90;;;;;;4418147;32;20070;-68
2021/12/12 02:57:10;;;;;;;1.37;1.27;;;-0.40;99.90;;;;;;4413821;32;20427;-67
2021/12/12 02:59:40;;;;;;;0.70;0.70;;;-0.30;99.90;;;;;;4424536;32;20054;-68
2021/12/12 03:02:09;;;;;;;1.30;1.20;;;-0.30;99.90;;;;;;4427700;32;20057;-68
2021/12/12 03:04:36;;;;;;;1.12;1.12;;;-0.30;99.90;;;;;;4417575;32;20598;-68
2021/12/12 03:07:04;;;;;;;0.60;0.60;;;-0.30;99.90;;;;;;4416474;32;20058;-68
2021/12/12 03:09:36;;;;;;;1.23;1.12;;;-0.20;99.90;;;;;;4414996;32;20057;-67
2021/12/12 03:12:09;;;;;;;1.87;1.27;;;-0.30;99.90;;;;;;4414396;32;20091;-69
2021/12/12 03:14:36;;;;;;;0.65;0.65;;;-0.30;99.90;;;;;;4421532;32;20058;-68
2021/12/12 03:17:06;;;;;;;3.28;1.55;;;-0.30;99.90;;;;;;4422816;32;20069;-68
2021/12/12 03:19:33;;;;;;;0.68;0.68;;;-0.30;99.90;;;;;;4424507;32;20062;-69
2021/12/12 03:21:59;;;;;;;0.60;0.60;;;-0.30;99.90;;;;;;4426778;32;20490;-67
2021/12/12 03:24:27;;;;;;;0.70;0.70;;;-0.30;99.90;;;;;;4417244;32;20128;-68
2021/12/12 03:26:56;;;;;;;2.60;1.58;;;-0.30;99.90;;;;;;4414824;32;20062;-69
2021/12/12 03:29:23;;;;;;;1.12;1.12;;;-0.30;99.90;;;;;;4421916;32;20131;-68
2021/12/12 03:31:57;;;;;;;0.70;0.70;;;-0.30;99.90;;;;;;4428686;32;20086;-68
2021/12/12 03:34:24;;;;;;;0.60;0.60;;;-0.20;99.90;;;;;;4418462;32;20196;-72
2021/12/12 03:36:50;;;;;;;2.37;1.35;;;-0.20;99.90;;;;;;4427692;32;20076;-68
2021/12/12 03:39:22;;;;;;;4.07;1.17;;;-0.20;99.90;;;;;;4424596;32;20464;-69
2021/12/12 03:41:49;;;;;;;0.40;0.40;;;-0.30;99.90;;;;;;4417762;32;20069;-70
2021/12/12 03:44:20;;;;;;;4.80;2.15;;;-0.30;99.90;;;;;;4428020;32;20094;-70
2021/12/12 03:46:48;;;;;;;1.08;1.08;;;-0.30;99.90;;;;;;4427443;32;20074;-69
2021/12/12 03:49:15;;;;;;;0.55;0.55;;;-0.20;99.90;;;;;;4413775;32;20512;-70
2021/12/12 03:51:42;;;;;;;3.35;1.58;;;-0.10;99.90;;;;;;4418806;32;20518;-70
2021/12/12 03:54:08;;;;;;;2.28;1.35;;;0.00;99.90;;;;;;4427166;32;20117;-69
2021/12/12 03:56:34;;;;;;;0.90;0.90;;;0.10;99.90;;;;;;4417985;32;20503;-70
2021/12/12 03:59:00;;;;;;;0.95;0.95;;;0.00;99.90;;;;;;4416721;32;20109;-69
2021/12/12 04:01:33;;;;;;;0.70;0.70;;;-0.10;99.90;;;;;;4412950;32;20071;-70
2021/12/12 04:04:05;;;;;;;0.73;0.73;;;-0.10;99.90;;;;;;4417634;32;20606;-69
2021/12/12 04:06:30;;;;;;;3.08;1.25;;;0.00;99.90;;;;;;4416055;32;20510;-69
2021/12/12 04:08:57;;;;;;;3.10;1.40;;;-0.10;99.90;;;;;;4413422;32;20069;-70
2021/12/12 04:11:32;;;;;;;1.25;1.15;;;0.00;99.90;;;;;;4422770;32;20073;-70
2021/12/12 04:13:58;;;;;;;0.70;0.70;;;0.00;99.90;;;;;;4421446;32;20120;-70
2021/12/12 04:16:28;;;;;;;0.65;0.65;;;0.00;99.90;;;;;;4420465;32;20466;-70
2021/12/12 04:18:54;;;;;;;2.40;1.58;;;0.00;99.90;;;;;;4413758;32;20058;-69
2021/12/12 04:21:21;;;;;;;0.60;0.60;;;0.00;99.90;;;;;;4419247;32;20082;-70
2021/12/12 04:23:47;;;;;;;1.10;1.05;;;-0.10;99.90;;;;;;4428419;32;20074;-70
2021/12/12 04:26:17;;;;;;;0.60;0.60;;;-0.20;99.90;;;;;;4418786;32;20082;-69
2021/12/12 04:28:42;;;;;;;1.40;1.30;;;-0.30;99.90;;;;;;4424517;32;20050;-71
2021/12/12 04:31:08;;;;;;;0.93;0.93;;;-0.30;99.90;;;;;;4415224;32;20098;-70
2021/12/12 04:33:34;;;;;;;3.30;1.37;;;-0.30;99.90;;;;;;4410609;32;106608;-70
2021/12/12 04:36:00;;;;;;;0.55;0.55;;;-0.30;99.90;;;;;;4413552;32;20384;-70
2021/12/12 04:38:26;;;;;;;0.82;0.82;;;-0.30;99.90;;;;;;4409500;32;20062;-70
2021/12/12 04:40:51;;;;;;;1.48;1.37;;;-0.30;99.90;;;;;;4422387;32;20124;-69
2021/12/12 04:43:17;;;;;;;0.50;0.50;;;-0.20;99.90;;;;;;4420813;32;20517;-70
2021/12/12 04:46:03;;;;;;;1.23;1.10;;;-0.20;99.90;;;;;;4422961;32;20180;-70
2021/12/12 04:49:55;;;;;;;0.52;0.52;;;-0.20;99.90;;;;;;4414253;32;20054;-70
2021/12/12 04:51:45;;;;;;;0.85;0.85;;;-0.20;99.90;;;;;;4402018;32;20604;-69
2021/12/12 04:54:16;;;;;;;1.15;1.05;;;-0.20;99.90;;;;;;4424301;32;20089;-70
2021/12/12 04:56:52;;;;;;;1.80;1.05;;;-0.10;99.90;;;;;;4416719;32;20135;-69
2021/12/12 04:59:28;;;;;;;0.60;0.60;;;0.00;99.90;;;;;;4419653;32;20062;-69
2021/12/12 05:02:04;;;;;;;1.20;1.15;;;0.00;99.90;;;;;;4416278;32;20079;-69
2021/12/12 05:04:39;;;;;;;1.37;1.25;;;-0.10;99.90;;;;;;4413512;32;20070;-69
2021/12/12 05:07:11;;;;;;;0.50;0.50;;;0.00;99.90;;;;;;4420907;32;20053;-69
2021/12/12 05:09:58;;;;;;;3.12;1.75;;;0.10;99.90;;;;;;4418232;32;20314;-69
2021/12/12 05:12:30;;;;;;;4.22;1.95;;;0.00;99.90;;;;;;4422884;32;20065;-69
2021/12/12 05:15:00;;;;;;;2.03;1.85;;;0.10;99.90;;;;;;4413973;32;20065;-70
2021/12/12 05:17:33;;;;;;;1.15;1.08;;;0.10;99.90;;;;;;4416305;32;20058;-70
2021/12/12 05:20:02;;;;;;;0.62;0.62;;;0.10;99.90;;;;;;4412948;32;20086;-70
2021/12/12 05:22:49;;;;;;;1.40;1.30;;;0.00;99.90;;;;;;4417580;32;20078;-69
2021/12/12 05:25:21;;;;;;;0.60;0.60;;;-0.10;99.90;;;;;;4415885;32;20518;-71
2021/12/12 05:27:51;;;;;;;0.65;0.65;;;-0.10;99.90;;;;;;4415383;32;20080;-70
2021/12/12 05:30:21;;;;;;;0.50;0.50;;;-0.10;99.90;;;;;;4429688;32;20081;-70
2021/12/12 05:32:49;;;;;;;0.98;0.98;;;-0.20;99.90;;;;;;4428040;32;20058;-71
2021/12/12 05:35:17;;;;;;;0.98;0.98;;;-0.20;99.90;;;;;;4414700;32;20086;-70
2021/12/12 05:37:48;;;;;;;0.50;0.50;;;-0.20;99.90;;;;;;4419232;32;20132;-71
2021/12/12 05:40:14;;;;;;;0.70;0.70;;;-0.20;99.90;;;;;;4415918;32;20058;-70
2021/12/12 05:42:39;;;;;;;0.73;0.73;;;-0.20;99.90;;;;;;4418499;32;20506;-70
2021/12/12 05:45:07;;;;;;;1.77;1.60;;;-0.30;99.90;;;;;;4421189;32;20748;-71
2021/12/12 05:47:33;;;;;;;0.82;0.82;;;-0.30;99.90;;;;;;4422141;32;20485;-71
2021/12/12 05:50:00;;;;;;;0.70;0.70;;;-0.30;99.90;;;;;;4416281;32;20428;-70
2021/12/12 05:52:26;;;;;;;0.50;0.50;;;-0.40;99.90;;;;;;4426587;32;20486;-70
2021/12/12 05:54:53;;;;;;;1.27;1.12;;;-0.30;99.90;;;;;;4423624;32;20090;-70
2021/12/12 05:57:24;;;;;;;0.73;0.73;;;-0.20;99.90;;;;;;4416080;32;20066;-70
2021/12/12 05:59:50;;;;;;;;;;;-0.20;99.90;;;;;;4426414;32;20093;-70
2021/12/12 06:02:16;;;;;;;1.98;1.30;;;-0.20;99.90;;;;;;4430433;32;19980;-70
2021/12/12 06:04:42;;;;;;;0.88;0.88;;;-0.10;99.90;;;;;;4419592;32;20058;-71
2021/12/12 06:07:14;;;;;;;1.08;1.08;;;-0.20;99.90;;;;;;4423205;32;20061;-70
2021/12/12 06:09:39;;;;;;;2.90;1.27;;;-0.20;99.90;;;;;;4430700;32;20317;-71
2021/12/12 06:12:06;;;;;;;0.77;0.77;;;-0.10;99.90;;;;;;4430054;32;20053;-69
2021/12/12 06:14:33;;;;;;;0.82;0.82;;;-0.10;99.90;;;;;;4422683;32;20061;-71
2021/12/12 06:17:00;;;;;;;1.33;1.10;;;-0.10;99.90;;;;;;4424284;32;20087;-70
2021/12/12 06:19:26;;;;;;;3.37;1.62;;;0.00;99.90;;;;;;4418408;32;20066;-70
2021/12/12 06:21:55;;;;;;;1.15;1.15;;;-0.10;99.90;;;;;;4427944;32;20331;-69
2021/12/12 06:24:23;;;;;;;1.92;1.12;;;-0.10;99.90;;;;;;4429225;32;20407;-70
2021/12/12 06:26:49;;;;;;;0.95;0.95;;;-0.20;99.90;;;;;;4429002;32;20142;-70
2021/12/12 06:29:15;;;;;;;0.98;0.98;;;-0.10;99.90;;;;;;4424796;32;20522;-70
2021/12/12 06:31:46;;;;;;;0.88;0.85;;;-0.10;99.90;;;;;;4419114;32;20090;-69
2021/12/12 06:34:12;;;;;;;0.47;0.47;;;-0.10;99.90;;;;;;4416360;32;20070;-69
2021/12/12 06:36:38;;;;;;;1.08;1.08;;;-0.20;99.90;;;;;;4428672;32;20069;-73
2021/12/12 06:39:07;;;;;;;0.80;0.80;;;-0.10;99.90;;;;;;4422231;32;20536;-70
2021/12/12 06:41:35;;;;;;;1.55;1.45;;;-0.10;99.90;;;;;;4431096;32;20065;-69
2021/12/12 06:44:03;;;;;;;3.42;2.50;;;-0.20;99.90;;;;;;4417437;32;20447;-69
2021/12/12 06:46:29;;;;;;;1.80;1.62;;;-0.20;99.90;;;;;;4417924;32;20077;-71
2021/12/12 06:48:57;;;;;;;0.70;0.70;;;-0.30;99.90;;;;;;4417838;32;20058;-69
2021/12/12 06:51:25;;;;;;;2.15;1.62;;;-0.30;99.90;;;;;;4414350;32;20129;-70
2021/12/12 06:53:51;;;;;;;0.62;0.62;;;-0.30;99.90;;;;;;4428306;32;20565;-70
2021/12/12 06:56:18;;;;;;;0.88;0.68;;;-0.20;99.90;;;;;;4429646;32;20061;-70
2021/12/12 06:58:46;;;;;;;1.40;1.30;;;-0.20;99.90;;;;;;4429759;32;20477;-70
2021/12/12 07:01:17;;;;;;;1.37;1.27;;;-0.20;99.90;;;;;;4430049;32;20072;-70
2021/12/12 07:03:44;;;;;;;1.75;1.20;;;-0.30;99.90;;;;;;4422018;32;20482;-69
2021/12/12 07:06:10;;;;;;;0.95;0.90;;;-0.20;99.90;;;;;;4417115;32;20540;-70
2021/12/12 07:08:36;;;;;;;0.68;0.68;;;-0.20;99.90;;;;;;4427998;32;20058;-70
2021/12/12 07:11:03;;;;;;;0.55;0.55;;;-0.20;99.90;;;;;;4426184;32;20398;-70
2021/12/12 07:13:30;;;;;;;1.33;1.23;;;-0.10;99.90;;;;;;4418759;32;20061;-70
2021/12/12 07:15:58;;;;;;;0.90;0.90;;;-0.10;99.90;;;;;;4427203;32;20081;-70
2021/12/12 07:18:30;;;;;;;0.47;0.47;;;-0.20;99.90;;;;;;4429219;32;20101;-71
2021/12/12 07:21:00;;;;;;;3.50;2.05;;;-0.30;99.90;;;;;;4415378;32;20058;-70
2021/12/12 07:23:26;;;;;;;1.08;1.08;;;-0.20;99.90;;;;;;4427696;32;20124;-71
2021/12/12 07:25:52;;;;;;;0.40;0.40;;;-0.30;99.90;;;;;;4425337;32;20077;-68
2021/12/12 07:28:18;;;;;;;0.60;0.60;;;-0.20;99.90;;;;;;4419161;32;20117;-69
2021/12/12 07:30:45;;;;;;;0.47;0.47;;;-0.30;99.90;;;;;;4413348;32;20408;-69
2021/12/12 07:33:11;;;;;;;1.05;1.05;;;-0.20;99.90;;;;;;4419533;32;20079;-69
2021/12/12 07:35:42;;;;;;;0.77;0.77;;;-0.10;99.90;;;;;;4415538;32;20070;-69
2021/12/12 07:38:09;;;;;;;;;;;-0.10;99.90;;;;;;4416352;32;20069;-69
2021/12/12 07:40:36;;;;;;;0.50;0.50;;;-0.10;99.90;;;;;;4428581;32;19955;-69
2021/12/12 07:43:02;;;;;;;0.65;0.65;;;-0.10;99.90;;;;;;4420898;32;20058;-69
2021/12/12 07:45:30;;;;;;;0.43;0.43;;;-0.20;99.90;;;;;;4418529;32;20085;-69
2021/12/12 07:47:55;;;;;;;0.88;0.82;;;-0.20;99.90;;;;;;4424500;32;20058;-69
2021/12/12 07:50:24;;;;;;;3.83;2.67;;;-0.10;99.90;;;;;;4417697;32;20114;-69
2021/12/12 07:52:50;;;;;;;0.85;0.85;;;0.00;99.90;;;;;;4417172;32;20507;-69
2021/12/12 07:55:16;;;;;;;0.50;0.50;;;0.10;99.90;;;;;;4419126;32;20089;-69
2021/12/12 07:57:42;;;;;;;0.65;0.65;;;0.10;99.90;;;;;;4427861;32;20123;-69
2021/12/12 08:00:15;;;;;;;1.30;0.95;;;0.10;99.90;;;;;;4428636;32;20093;-69
2021/12/12 08:02:42;;;;;;;0.62;0.62;;;0.00;99.90;;;;;;4419053;32;20058;-69
2021/12/12 08:05:09;;;;;;;1.10;1.10;;;0.00;99.90;;;;;;4424613;32;20062;-69
2021/12/12 08:07:36;;;;;;;1.50;1.15;;;0.00;99.90;;;;;;4413519;32;20062;-69
2021/12/12 08:10:05;;;;;;;2.83;1.67;;;0.00;99.90;;;;;;4422027;32;20462;-69
2021/12/12 08:12:31;;;;;;;0.88;0.88;;;0.10;99.90;;;;;;4420789;32;20507;-69
2021/12/12 08:14:58;;;;;;;2.55;1.58;;;0.10;99.90;;;;;;4422037;32;20112;-69
2021/12/12 08:17:25;;;;;;;0.60;0.60;;;0.10;99.90;;;;;;4422808;32;20077;-69
2021/12/12 08:19:52;;;;;;;3.72;1.48;;;0.20;99.90;;;;;;4412977;32;20062;-68
2021/12/12 08:22:17;;;;;;;1.30;1.10;;;0.20;99.90;;;;;;4420071;32;20069;-70
2021/12/12 08:24:44;;;;;;;0.95;0.95;;;0.10;99.90;;;;;;4418423;32;20546;-70
2021/12/12 08:27:10;;;;;;;2.37;1.70;;;0.10;99.90;;;;;;4427268;32;20190;-71
2021/12/12 08:29:37;;;;;;;1.27;1.05;;;0.20;99.90;;;;;;4427600;32;20077;-69
2021/12/12 08:32:05;;;;;;;1.00;0.95;;;0.40;99.90;;;;;;4416179;32;20058;-70
2021/12/12 08:34:30;;;;;;;0.85;0.85;;;0.50;99.90;;;;;;4417325;32;20084;-69
2021/12/12 08:36:58;;;;;;;3.83;1.42;;;0.50;99.90;;;;;;4413951;32;20079;-68
2021/12/12 08:39:25;;;;;;;1.75;1.42;;;0.50;99.90;;;;;;4417799;32;20078;-69
2021/12/12 08:41:54;;;;;;;0.75;0.75;;;0.50;99.90;;;;;;4414370;32;20085;-69
2021/12/12 08:44:20;;;;;;;0.50;0.50;;;0.60;99.90;;;;;;4423891;32;20065;-69
2021/12/12 08:46:48;;;;;;;2.83;1.60;;;0.60;99.90;;;;;;4419583;32;20061;-69
2021/12/12 08:49:16;;;;;;;2.17;1.23;;;0.70;99.90;;;;;;4417953;32;20058;-69
2021/12/12 08:51:49;;;;;;;0.70;0.70;;;0.80;99.90;;;;;;4424426;32;20073;-69
2021/12/12 08:54:24;;;;;;;1.33;0.70;;;0.70;99.90;;;;;;4412518;32;20069;-70
2021/12/12 08:57:01;;;;;;;0.60;0.60;;;0.80;99.90;;;;;;4415510;32;20121;-69
2021/12/12 08:59:27;;;;;;;0.75;0.75;;;0.80;99.90;;;;;;4429818;32;20081;-68
2021/12/12 09:01:57;;;;;;;2.17;1.90;;;0.80;99.90;;;;;;4421803;32;20411;-69
2021/12/12 09:04:23;;;;;;;0.50;0.50;;;0.90;99.90;;;;;;4414172;32;20084;-69
2021/12/12 09:06:57;;;;;;;1.50;1.25;;;0.90;99.90;;;;;;4416134;32;20502;-69
2021/12/12 09:09:27;;;;;;;0.90;0.90;;;0.90;99.90;;;;;;4417723;32;20121;-69
2021/12/12 09:12:01;;;;;;;0.70;0.70;;;1.00;99.90;;;;;;4415644;32;20077;-69
2021/12/12 09:14:53;;;;;;;0.35;0.35;;;1.10;99.90;;;;;;4418162;32;20070;-69
2021/12/12 09:17:27;;;;;;;0.95;0.95;;;1.10;99.90;;;;;;4419607;32;20078;-69
2021/12/12 09:20:10;;;;;;;5.97;3.53;;;1.10;99.90;;;;;;4415645;32;20561;-69
2021/12/12 09:22:45;;;;;;;0.73;0.73;;;1.20;99.90;;;;;;4424818;32;20053;-69
2021/12/12 09:25:24;;;;;;;0.85;0.85;;;1.20;99.90;;;;;;4424708;32;20077;-69
2021/12/12 09:27:55;;;;;;;0.80;0.80;;;1.20;99.90;;;;;;4427029;32;20450;-68
2021/12/12 09:30:24;;;;;;;1.40;1.17;;;1.40;99.90;;;;;;4415461;32;20754;-68
2021/12/12 09:32:58;;;;;;;7.55;1.75;;;1.40;99.90;;;;;;4421006;32;20504;-69
2021/12/12 09:35:35;;;;;;;0.93;0.85;;;1.50;99.90;;;;;;4424953;32;20062;-69
2021/12/12 09:38:07;;;;;;;0.52;0.52;;;1.50;99.90;;;;;;4422174;32;20129;-69
2021/12/12 09:40:55;;;;;;;4.95;1.30;;;1.50;99.90;;;;;;4427798;32;20151;-68
2021/12/12 09:43:35;;;;;;;0.52;0.52;;;1.50;99.90;;;;;;4417710;32;20409;-69
2021/12/12 09:46:38;;;;;;;1.17;1.07;;;1.50;99.90;;;;;;4413183;32;20077;-68
2021/12/12 09:51:34;;;;;;;1.08;0.95;;;1.60;99.90;;;;;;4417120;32;20426;-68
2021/12/12 09:52:32;;;;;;;1.02;1.02;;;1.60;99.90;;;;;;4404978;32;20098;-68
2021/12/12 09:55:23;;;;;;;0.80;0.80;;;1.70;99.90;;;;;;4415044;32;20153;-68
2021/12/12 09:57:53;;;;;;;;;;;1.60;99.90;;;;;;4403806;32;20061;-68
2021/12/12 10:00:36;;;;;;;0.80;0.80;;;1.70;99.90;;;;;;4414130;32;19957;-68
2021/12/12 10:03:25;;;;;;;0.50;0.50;;;1.80;99.90;;;;;;4413636;32;20057;-68
2021/12/12 10:06:16;;;;;;;0.70;0.70;;;1.80;99.90;;;;;;4402996;32;20086;-68
2021/12/12 10:08:52;;;;;;;0.80;0.80;;;1.90;99.90;;;;;;4404402;32;20052;-68
2021/12/12 10:11:27;;;;;;;2.37;1.37;;;1.80;99.90;;;;;;4415391;32;20062;-68
2021/12/12 10:14:05;;;;;;;3.58;1.98;;;1.90;99.90;;;;;;4428976;32;20065;-68
2021/12/12 10:16:42;;;;;;;2.72;1.67;;;1.90;99.90;;;;;;4419320;32;20128;-68
2021/12/12 10:19:21;;;;;;;0.70;0.70;;;2.00;99.90;;;;;;4429852;32;20074;-68
2021/12/12 10:22:03;;;;;;;0.88;0.88;;;2.00;99.90;;;;;;4426678;32;20077;-69
2021/12/12 10:24:34;;;;;;;0.65;0.65;;;2.00;99.90;;;;;;4422228;32;20066;-68
2021/12/12 10:27:09;;;;;;;0.50;0.50;;;1.90;99.90;;;;;;4414296;32;20070;-68
2021/12/12 10:30:00;;;;;;;9.27;1.27;;;1.90;99.90;;;;;;4414383;32;20534;-68
2021/12/12 10:32:30;;;;;;;0.68;0.68;;;1.90;99.90;;;;;;4403070;32;20081;-68
2021/12/12 10:35:06;;;;;;;0.80;0.80;;;1.90;99.90;;;;;;4425444;32;20136;-68
2021/12/12 10:37:39;;;;;;;1.50;1.00;;;1.90;99.90;;;;;;4418885;32;20061;-68
2021/12/12 10:40:14;;;;;;;0.82;0.82;;;2.10;99.90;;;;;;4414733;32;20078;-69
2021/12/12 10:42:47;;;;;;;1.37;1.27;;;2.20;99.90;;;;;;4415828;32;20074;-69
2021/12/12 10:45:20;;;;;;;1.02;0.88;;;2.20;99.90;;;;;;4413724;32;20066;-69
2021/12/12 10:47:58;;;;;;;6.07;1.58;;;2.20;99.90;;;;;;4413524;32;20272;-68
2021/12/12 10:50:38;;;;;;;0.50;0.50;;;2.30;99.90;;;;;;4414901;32;20517;-68
2021/12/12 10:53:10;;;;;;;1.62;1.48;;;2.30;99.90;;;;;;4414654;32;20073;-69
2021/12/12 10:55:47;;;;;;;5.47;1.27;;;2.40;99.90;;;;;;4416622;32;20074;-69
2021/12/12 10:58:34;;;;;;;2.40;1.30;;;2.40;99.90;;;;;;4428650;32;20517;-69
2021/12/12 11:01:07;;;;;;;1.80;1.23;;;2.30;99.90;;;;;;4417231;32;20069;-68
2021/12/12 11:03:54;;;;;;;1.33;0.80;;;2.40;99.90;;;;;;4419609;32;20164;-69
2021/12/12 11:06:39;;;;;;;3.20;0.70;;;2.40;99.90;;;;;;4412506;32;20525;-69
2021/12/12 11:09:12;;;;;;;0.70;0.70;;;2.50;99.90;;;;;;4417064;32;20082;-69
2021/12/12 11:11:43;;;;;;;4.12;1.73;;;2.50;99.90;;;;;;4423680;32;20216;-69
2021/12/12 11:14:29;;;;;;;0.88;0.88;;;2.50;99.90;;;;;;4417662;32;20487;-69
2021/12/12 11:16:58;;;;;;;1.00;0.88;;;2.50;99.90;;;;;;4417132;32;20132;-69
2021/12/12 11:19:48;;;;;;;0.43;0.43;;;2.50;99.90;;;;;;4419038;32;20069;-69
2021/12/12 11:22:20;;;;;;;4.15;1.73;;;2.40;99.90;;;;;;4408911;32;20081;-69
2021/12/12 11:24:56;;;;;;;1.15;1.05;;;2.40;99.90;;;;;;4422414;32;20124;-69
2021/12/12 11:27:43;;;;;;;0.70;0.70;;;2.50;99.90;;;;;;4424227;32;20066;-69
2021/12/12 11:30:18;;;;;;;1.35;1.25;;;2.50;99.90;;;;;;4414914;32;20065;-69
2021/12/12 11:32:45;;;;;;;1.20;1.20;;;2.50;99.90;;;;;;4417322;32;20061;-69
2021/12/12 11:35:12;;;;;;;1.12;1.12;;;2.50;99.90;;;;;;4413926;32;20065;-69
2021/12/12 11:37:55;;;;;;;1.20;0.73;;;2.40;99.90;;;;;;4414678;32;20395;-69
2021/12/12 11:40:44;;;;;;;1.08;1.02;;;2.40;99.90;;;;;;4409386;32;20086;-69
2021/12/12 11:43:17;;;;;;;0.47;0.47;;;2.40;99.90;;;;;;4414500;32;20529;-69
2021/12/12 11:45:49;;;;;;;0.85;0.85;;;2.40;99.90;;;;;;4427632;32;20452;-69
2021/12/12 11:48:23;;;;;;;0.70;0.70;;;2.50;99.90;;;;;;4400719;32;20058;-69
2021/12/12 11:50:57;;;;;;;2.75;1.60;;;2.40;99.90;;;;;;4420645;32;20077;-69
2021/12/12 11:53:55;;;;;;;1.48;1.30;;;2.50;99.90;;;;;;4420853;32;20085;-69
2021/12/12 11:56:26;;;;;;;2.60;1.05;;;2.40;99.90;;;;;;4417499;32;20206;-69
2021/12/12 11:59:16;;;;;;;0.77;0.77;;;2.40;99.90;;;;;;4414183;32;20541;-69
2021/12/12 12:02:08;;;;;;;0.50;0.50;;;2.40;99.90;;;;;;4405674;32;20134;-69
2021/12/12 12:04:53;;;;;;;2.03;1.77;;;2.40;99.90;;;;;;4406936;32;20513;-69
2021/12/12 12:07:48;;;;;;;0.60;0.60;;;2.40;99.90;;;;;;4412015;32;20097;-69
2021/12/12 12:10:29;;;;;;;0.82;0.82;;;2.40;99.90;;;;;;4411521;32;20505;-69
2021/12/12 12:13:17;;;;;;;0.68;0.68;;;2.50;99.90;;;;;;4416409;32;20078;-69
2021/12/12 12:15:52;;;;;;;0.55;0.55;;;2.50;99.90;;;;;;4410085;32;20069;-69
2021/12/12 12:18:41;;;;;;;1.05;1.05;;;2.50;99.90;;;;;;4427768;32;20090;-69
2021/12/12 12:21:15;;;;;;;0.80;0.80;;;2.60;99.90;;;;;;4425203;32;20528;-69
2021/12/12 12:26:51;;;;;;;0.57;0.57;;;2.60;99.90;;;;;;4407106;32;20112;-72
2021/12/12 12:29:38;;;;;;;1.73;1.27;;;2.70;99.90;;;;;;4424242;32;20093;-72
2021/12/12 12:32:26;;;;;;;0.75;0.75;;;2.80;99.90;;;;;;4416373;32;20089;-72
2021/12/12 12:35:33;;;;;;;0.60;0.60;;;2.80;99.90;;;;;;4416545;32;20065;-71
2021/12/12 12:38:38;;;;;;;3.37;1.77;;;2.90;99.90;;;;;;4408235;32;20094;-72
2021/12/12 12:41:44;;;;;;;0.50;0.50;;;2.80;99.90;;;;;;4406830;32;20068;-71
2021/12/12 12:44:49;;;;;;;2.45;1.42;;;2.80;99.90;;;;;;4401993;32;20073;-72
2021/12/12 12:47:54;;;;;;;0.32;0.32;;;2.80;99.90;;;;;;4417042;32;20066;-71
2021/12/12 12:50:56;;;;;;;0.45;0.45;;;2.80;99.90;;;;;;4407464;32;20073;-71
2021/12/12 12:53:43;;;;;;;1.35;1.25;;;2.80;99.90;;;;;;4416451;32;20158;-71
2021/12/12 12:56:29;;;;;;;0.98;0.90;;;2.90;99.90;;;;;;4410051;32;20073;-71
2021/12/12 12:59:32;;;;;;;7.37;2.17;;;2.90;99.90;;;;;;4409561;32;20443;-71
2021/12/12 13:02:12;;;;;;;0.85;0.85;;;2.80;99.90;;;;;;4416386;32;20086;-71
2021/12/12 13:05:00;;;;;;;4.07;1.45;;;2.90;99.90;;;;;;4421809;32;20449;-71
2021/12/12 13:08:02;;;;;;;1.85;1.08;;;3.00;99.90;;;;;;4407972;32;20094;-71
2021/12/12 13:10:30;;;;;;;1.00;1.00;;;3.10;99.90;;;;;;4418214;32;20447;-71
2021/12/12 13:13:07;;;;;;;1.00;1.00;;;3.00;99.90;;;;;;4419371;32;20094;-71
2021/12/12 13:15:54;;;;;;;0.60;0.60;;;2.90;99.90;;;;;;4425974;32;20146;-72
2021/12/12 13:18:52;;;;;;;1.17;1.08;;;2.80;99.90;;;;;;4416393;32;20073;-72
2021/12/12 13:21:29;;;;;;;0.60;0.60;;;2.80;99.90;;;;;;4412509;32;20074;-71
2021/12/12 13:24:22;;;;;;;1.75;1.40;;;2.80;99.90;;;;;;4420911;32;20130;-71
2021/12/12 13:27:07;;;;;;;2.35;1.02;;;2.90;99.90;;;;;;4420599;32;20124;-71
2021/12/12 13:29:53;;;;;;;0.82;0.82;;;2.90;99.90;;;;;;4430056;32;20130;-71
2021/12/12 13:32:27;;;;;;;0.75;0.75;;;2.80;99.90;;;;;;4417978;32;20142;-71
2021/12/12 13:35:04;;;;;;;0.65;0.65;;;2.70;99.90;;;;;;4421515;32;20087;-72
2021/12/12 13:37:58;;;;;;;0.57;0.57;;;2.60;99.90;;;;;;4430140;32;20069;-71
2021/12/12 13:40:46;;;;;;;0.68;0.68;;;2.60;99.90;;;;;;4405595;32;20128;-72